Hlavní strana
METAR-TAF:

METAR-TAF

Letiště :

Mariehamn, Finsko

zeměpisná šířka: 60-07N, zeměpisná délka: 019-54E, výška: 6 m

Aktuální stav počasí

Zpráva byla vytvořena před 25 minutami, v 00:50 UTC
Bezvětří
Teplota 4°C
Vlhkost vzduchu 93%
Tlak 1019 hPa
Viditelnost 10 km a více
Žádná oblačnost pod 1500 m, nevyskytují se cumulonimby.

METAR: EFMA 220050Z AUTO 00000KT CAVOK 04/03 Q1019

Čas: 04:15 (01:15 UTC)

Předpověď počasí

Zpráva byla vytvořena před 1 hodinou a 48 minutami, v 23:27 UTC
Předpověď platná od 22 v 00 UTC do 22 v 09 UTC
Jihojihozápadní vítr 3 kt
Viditelnost 10 km a více
Žádná oblačnost pod 1500 m, nevyskytují se cumulonimby.

TAF: EFMA 212327Z 2200/2209 20003KT CAVOK

Stav a předpovědi počasí z více než 4 000 letišť (zprávy METAR a TAF).

Červené a žluté tečky na mapě představují dostupné meteorologické stanice.

Když kurzor umístíte na tečku, zobrazí se název stanice.

Pak kliknutím zobrazíte stav a předpověď počasí.

Chcete-li změnit mapu, kliknutím na zelené tlačítko se znaménkem +mapu přiblížíte, kliknutím na zelené tlačítko se znaménkem – mapu oddálíte a kliknutím na zelené šipky přejdete na sousední mapy.


METAR-TAF: